Souk-El Arba, Tunisia
Current Conditions -  °F | °C
As of 2:00 PM on Friday 19 Dec 2014 (Local Time) from DTTN Reporting Station
Scattered Clouds Scattered Clouds  
Wind Chill: 66°   Ceiling: Unl
Heat Index: 66°   Visibility: 6mi
Dew Point: 57°   Wind: 2mph
Humidity: 73%   Direction: 200°SSW
Pressure: 30.3"   Gusts: NA
Location:  36.5°N, 8.77°E
Report Text: DTTN 191300Z 20002KT 9999 SCT020 19/14 Q1026
Loading
Personal Weather Stations






























Interactive Weather Map New forecast layout! Learn more

10-Day Weather Forecast

Advertisements
Track Severe Weather on mobile